Time,TemperatureF,DewpointF,PressureIn,WindDirection,WindDirectionDegrees,WindSpeedMPH,WindSpeedGustMPH,Humidity,HourlyPrecipIn,Conditions,Clouds,dailyrainin,SolarRadiationWatts/m^2,SoftwareType,DateUTC
2013-01-26 00:01:00,73.0,62.0,-100.00,NW,315,3.0,6.0,69,0.00,,,0.00,0.000000,,2013-01-26 10:01:00,
2013-01-26 00:11:00,73.0,62.0,-100.00,NW,315,3.0,6.0,69,0.00,,,0.00,0.000000,,2013-01-26 10:11:00,
2013-01-26 00:21:00,73.0,62.0,-100.00,NW,315,3.0,6.0,69,0.00,,,0.00,0.000000,,2013-01-26 10:21:00,
2013-01-26 00:31:00,73.0,62.0,-100.00,NW,315,3.0,6.0,69,0.00,,,0.00,0.000000,,2013-01-26 10:31:00,
2013-01-26 00:52:00,74.0,63.0,-100.00,NW,316,1.0,5.0,69,0.00,,,0.00,1.000000,,2013-01-26 10:52:00,
2013-01-26 01:01:00,74.0,63.0,-100.00,NW,316,1.0,5.0,69,0.00,,,0.00,1.000000,,2013-01-26 11:01:00,
2013-01-26 01:12:00,74.0,63.0,-100.00,NW,316,1.0,5.0,69,0.00,,,0.00,1.000000,,2013-01-26 11:12:00,
2013-01-26 01:22:00,74.0,63.0,-100.00,NW,316,1.0,5.0,69,0.00,,,0.00,1.000000,,2013-01-26 11:22:00,
2013-01-26 01:32:00,74.0,63.0,-100.00,NW,316,1.0,5.0,69,0.00,,,0.00,1.000000,,2013-01-26 11:32:00,
2013-01-26 02:02:00,72.0,62.0,-100.00,NW,323,4.0,5.0,70,0.00,,,0.00,1.000000,,2013-01-26 12:02:00,
2013-01-26 02:12:00,72.0,62.0,-100.00,NW,323,4.0,5.0,70,0.00,,,0.00,1.000000,,2013-01-26 12:12:00,
2013-01-26 02:22:00,72.0,62.0,-100.00,NW,323,4.0,5.0,70,0.00,,,0.00,1.000000,,2013-01-26 12:22:00,
2013-01-26 02:33:00,72.0,62.0,-100.00,NW,323,4.0,5.0,70,0.00,,,0.00,1.000000,,2013-01-26 12:33:00,
2013-01-26 03:03:00,75.0,65.0,-100.00,NW,317,4.0,7.0,71,0.00,,,0.00,1.000000,,2013-01-26 13:03:00,
2013-01-26 03:12:00,75.0,65.0,-100.00,NW,317,4.0,7.0,71,0.00,,,0.00,1.000000,,2013-01-26 13:12:00,
2013-01-26 03:22:00,75.0,65.0,-100.00,NW,317,4.0,7.0,71,0.00,,,0.00,1.000000,,2013-01-26 13:22:00,
2013-01-26 03:32:00,75.0,65.0,-100.00,NW,317,4.0,7.0,71,0.00,,,0.00,1.000000,,2013-01-26 13:32:00,
2013-01-26 04:02:00,74.0,59.0,-100.00,North,350,1.0,6.0,60,0.00,,,0.00,1.000000,,2013-01-26 14:02:00,
2013-01-26 04:11:00,74.0,59.0,-100.00,North,350,1.0,6.0,60,0.00,,,0.00,1.000000,,2013-01-26 14:11:00,
2013-01-26 04:21:00,74.0,59.0,-100.00,North,350,1.0,6.0,60,0.00,,,0.00,1.000000,,2013-01-26 14:21:00,
2013-01-26 04:31:00,74.0,59.0,-100.00,North,350,1.0,6.0,60,0.00,,,0.00,1.000000,,2013-01-26 14:31:00,
2013-01-26 04:53:00,73.0,63.0,-100.00,NW,325,5.0,6.0,72,0.00,,,0.00,1.000000,,2013-01-26 14:53:00,
2013-01-26 05:02:00,73.0,63.0,-100.00,NW,325,5.0,6.0,72,0.00,,,0.00,1.000000,,2013-01-26 15:02:00,
2013-01-26 05:12:00,73.0,63.0,-100.00,NW,325,5.0,6.0,72,0.00,,,0.00,1.000000,,2013-01-26 15:12:00,
2013-01-26 05:22:00,73.0,63.0,-100.00,NW,325,5.0,6.0,72,0.00,,,0.00,1.000000,,2013-01-26 15:22:00,
2013-01-26 05:32:00,73.0,63.0,-100.00,NW,325,5.0,6.0,72,0.00,,,0.00,1.000000,,2013-01-26 15:32:00,
2013-01-26 06:02:00,72.0,62.0,-100.00,NNE,13,1.0,4.0,70,0.00,,,-99.99,1.000000,,2013-01-26 16:02:00,
2013-01-26 06:12:00,72.0,62.0,-100.00,NNE,13,1.0,4.0,70,0.00,,,-99.99,1.000000,,2013-01-26 16:12:00,
2013-01-26 06:21:00,72.0,62.0,-100.00,NNE,13,1.0,4.0,70,0.00,,,-99.99,1.000000,,2013-01-26 16:21:00,
2013-01-26 06:32:00,72.0,62.0,-100.00,NNE,13,1.0,4.0,70,0.00,,,-99.99,1.000000,,2013-01-26 16:32:00,
2013-01-26 07:03:00,72.0,60.0,-100.00,North,8,1.0,4.0,67,0.00,,,0.00,0.000000,,2013-01-26 17:03:00,
2013-01-26 07:12:00,72.0,60.0,-100.00,North,8,1.0,4.0,67,0.00,,,0.00,0.000000,,2013-01-26 17:12:00,
2013-01-26 07:22:00,72.0,60.0,-100.00,North,8,1.0,4.0,67,0.00,,,0.00,0.000000,,2013-01-26 17:22:00,
2013-01-26 07:32:00,72.0,60.0,-100.00,North,8,1.0,4.0,67,0.00,,,0.00,0.000000,,2013-01-26 17:32:00,
2013-01-26 07:53:00,73.0,62.0,-100.00,NNE,16,3.0,5.0,68,0.00,,,0.00,11.000000,,2013-01-26 17:53:00,
2013-01-26 08:02:00,73.0,62.0,-100.00,NNE,16,3.0,5.0,68,0.00,,,0.00,11.000000,,2013-01-26 18:02:00,
2013-01-26 08:12:00,73.0,62.0,-100.00,NNE,16,3.0,5.0,68,0.00,,,0.00,11.000000,,2013-01-26 18:12:00,
2013-01-26 08:22:00,73.0,62.0,-100.00,NNE,16,3.0,5.0,68,0.00,,,0.00,11.000000,,2013-01-26 18:22:00,
2013-01-26 08:32:00,73.0,62.0,-100.00,NNE,16,3.0,5.0,68,0.00,,,0.00,11.000000,,2013-01-26 18:32:00,
2013-01-26 09:03:00,79.0,63.0,-100.00,ENE,69,4.0,6.0,59,0.00,,,0.00,185.000000,,2013-01-26 19:03:00,
2013-01-26 09:11:00,79.0,63.0,-100.00,ENE,69,4.0,6.0,59,0.00,,,0.00,185.000000,,2013-01-26 19:11:00,
2013-01-26 09:22:00,79.0,63.0,-100.00,ENE,69,4.0,6.0,59,0.00,,,0.00,185.000000,,2013-01-26 19:22:00,
2013-01-26 09:32:00,79.0,63.0,-100.00,ENE,69,4.0,6.0,59,0.00,,,0.00,185.000000,,2013-01-26 19:32:00,
2013-01-26 09:53:00,88.0,65.0,-100.00,ENE,64,4.0,9.0,47,0.00,,,0.00,426.000000,,2013-01-26 19:53:00,
2013-01-26 10:02:00,88.0,65.0,-100.00,ENE,64,4.0,9.0,47,0.00,,,0.00,426.000000,,2013-01-26 20:02:00,
2013-01-26 10:11:00,88.0,65.0,-100.00,ENE,64,4.0,9.0,47,0.00,,,0.00,426.000000,,2013-01-26 20:11:00,
2013-01-26 10:21:00,88.0,65.0,-100.00,ENE,64,4.0,9.0,47,0.00,,,0.00,426.000000,,2013-01-26 20:21:00,
2013-01-26 10:32:00,88.0,65.0,-100.00,ENE,64,4.0,9.0,47,0.00,,,0.00,426.000000,,2013-01-26 20:32:00,
2013-01-26 10:52:00,85.0,62.0,-100.00,ESE,117,5.0,11.0,47,0.00,,,0.00,502.000000,,2013-01-26 20:52:00,
2013-01-26 11:02:00,85.0,62.0,-100.00,ESE,117,5.0,11.0,47,0.00,,,0.00,502.000000,,2013-01-26 21:02:00,
2013-01-26 11:12:00,85.0,62.0,-100.00,ESE,117,5.0,11.0,47,0.00,,,0.00,502.000000,,2013-01-26 21:12:00,
2013-01-26 11:22:00,85.0,62.0,-100.00,ESE,117,5.0,11.0,47,0.00,,,0.00,502.000000,,2013-01-26 21:22:00,
2013-01-26 11:31:00,85.0,62.0,-100.00,ESE,117,5.0,11.0,47,0.00,,,0.00,502.000000,,2013-01-26 21:31:00,
2013-01-26 11:52:00,89.0,64.0,-100.00,ENE,77,6.0,12.0,44,0.00,,,0.00,505.000000,,2013-01-26 21:52:00,
2013-01-26 12:01:00,89.0,64.0,-100.00,ENE,77,6.0,12.0,44,0.00,,,0.00,505.000000,,2013-01-26 22:01:00,
2013-01-26 12:11:00,89.0,64.0,-100.00,ENE,77,6.0,12.0,44,0.00,,,0.00,505.000000,,2013-01-26 22:11:00,
2013-01-26 12:21:00,89.0,64.0,-100.00,ENE,77,6.0,12.0,44,0.00,,,0.00,505.000000,,2013-01-26 22:21:00,
2013-01-26 12:31:00,89.0,64.0,-100.00,ENE,77,6.0,12.0,44,0.00,,,0.00,505.000000,,2013-01-26 22:31:00,
2013-01-26 12:52:00,85.0,63.0,-100.00,ENE,71,6.0,14.0,48,0.00,,,0.00,501.000000,,2013-01-26 22:52:00,
2013-01-26 13:01:00,85.0,63.0,-100.00,ENE,71,6.0,14.0,48,0.00,,,0.00,501.000000,,2013-01-26 23:01:00,
2013-01-26 13:11:00,85.0,63.0,-100.00,ENE,71,6.0,14.0,48,0.00,,,0.00,501.000000,,2013-01-26 23:11:00,
2013-01-26 13:21:00,85.0,63.0,-100.00,ENE,71,6.0,14.0,48,0.00,,,0.00,501.000000,,2013-01-26 23:21:00,
2013-01-26 13:32:00,85.0,63.0,-100.00,ENE,71,6.0,14.0,48,0.00,,,0.00,501.000000,,2013-01-26 23:32:00,
2013-01-26 14:02:00,74.0,64.0,-100.00,ESE,111,9.0,21.0,72,0.12,,,0.12,69.000000,,2013-01-27 00:02:00,
2013-01-26 14:11:00,74.0,64.0,-100.00,ESE,111,9.0,21.0,72,0.12,,,0.12,69.000000,,2013-01-27 00:11:00,
2013-01-26 14:21:00,74.0,64.0,-100.00,ESE,111,9.0,21.0,72,0.12,,,0.12,69.000000,,2013-01-27 00:21:00,
2013-01-26 14:31:00,74.0,64.0,-100.00,ESE,111,9.0,21.0,72,0.12,,,0.12,69.000000,,2013-01-27 00:31:00,
2013-01-26 15:01:00,77.0,68.0,-100.00,ESE,115,10.0,19.0,73,0.02,,,0.14,111.000000,,2013-01-27 01:01:00,
2013-01-26 15:11:00,77.0,68.0,-100.00,ESE,115,10.0,19.0,73,0.02,,,0.14,111.000000,,2013-01-27 01:11:00,
2013-01-26 15:22:00,77.0,68.0,-100.00,ESE,115,10.0,19.0,73,0.02,,,0.14,111.000000,,2013-01-27 01:22:00,
2013-01-26 15:32:00,77.0,68.0,-100.00,ESE,115,10.0,19.0,73,0.02,,,0.14,111.000000,,2013-01-27 01:32:00,
2013-01-26 15:52:00,77.0,67.0,-100.00,ESE,109,9.0,16.0,72,0.00,,,0.14,132.000000,,2013-01-27 01:52:00,
2013-01-26 16:01:00,77.0,67.0,-100.00,ESE,109,9.0,16.0,72,0.00,,,0.14,132.000000,,2013-01-27 02:01:00,
2013-01-26 16:11:00,77.0,67.0,-100.00,ESE,109,9.0,16.0,72,0.00,,,0.14,132.000000,,2013-01-27 02:11:00,
2013-01-26 16:21:00,77.0,67.0,-100.00,ESE,109,9.0,16.0,72,0.00,,,0.14,132.000000,,2013-01-27 02:21:00,
2013-01-26 16:31:00,77.0,67.0,-100.00,ESE,109,9.0,16.0,72,0.00,,,0.14,132.000000,,2013-01-27 02:31:00,
2013-01-26 17:01:00,78.0,67.0,-100.00,ESE,107,8.0,21.0,69,0.00,,,0.14,81.000000,,2013-01-27 03:01:00,
2013-01-26 17:11:00,78.0,67.0,-100.00,ESE,107,8.0,21.0,69,0.00,,,0.14,81.000000,,2013-01-27 03:11:00,
2013-01-26 17:21:00,78.0,67.0,-100.00,ESE,107,8.0,21.0,69,0.00,,,0.14,81.000000,,2013-01-27 03:21:00,
2013-01-26 17:31:00,78.0,67.0,-100.00,ESE,107,8.0,21.0,69,0.00,,,0.14,81.000000,,2013-01-27 03:31:00,
2013-01-26 18:01:00,78.0,67.0,-100.00,East,96,9.0,20.0,69,0.00,,,-99.99,69.000000,,2013-01-27 04:01:00,
2013-01-26 18:11:00,78.0,67.0,-100.00,East,96,9.0,20.0,69,0.00,,,-99.99,69.000000,,2013-01-27 04:11:00,
2013-01-26 18:21:00,78.0,67.0,-100.00,East,96,9.0,20.0,69,0.00,,,-99.99,69.000000,,2013-01-27 04:21:00,
2013-01-26 18:31:00,78.0,67.0,-100.00,East,96,9.0,20.0,69,0.00,,,-99.99,69.000000,,2013-01-27 04:31:00,
2013-01-26 18:52:00,77.0,66.0,-100.00,ENE,74,7.0,15.0,70,0.00,,,0.14,22.000000,,2013-01-27 04:52:00,
2013-01-26 19:03:00,77.0,66.0,-100.00,ENE,74,7.0,15.0,70,0.00,,,0.14,22.000000,,2013-01-27 05:03:00,
2013-01-26 19:12:00,77.0,66.0,-100.00,ENE,74,7.0,15.0,70,0.00,,,0.14,22.000000,,2013-01-27 05:12:00,
2013-01-26 19:22:00,77.0,66.0,-100.00,ENE,74,7.0,15.0,70,0.00,,,0.14,22.000000,,2013-01-27 05:22:00,
2013-01-26 19:31:00,77.0,66.0,-100.00,ENE,74,7.0,15.0,70,0.00,,,0.14,22.000000,,2013-01-27 05:31:00,
2013-01-26 20:01:00,75.0,65.0,-100.00,East,85,7.0,15.0,70,0.00,,,0.14,0.000000,,2013-01-27 06:01:00,
2013-01-26 20:11:00,75.0,65.0,-100.00,East,85,7.0,15.0,70,0.00,,,0.14,0.000000,,2013-01-27 06:11:00,
2013-01-26 20:21:00,75.0,65.0,-100.00,East,85,7.0,15.0,70,0.00,,,0.14,0.000000,,2013-01-27 06:21:00,
2013-01-26 20:31:00,75.0,65.0,-100.00,East,85,7.0,15.0,70,0.00,,,0.14,0.000000,,2013-01-27 06:31:00,
2013-01-26 21:01:00,76.0,67.0,-100.00,East,89,6.0,12.0,73,0.00,,,0.14,1.000000,,2013-01-27 07:01:00,
2013-01-26 21:13:00,76.0,67.0,-100.00,East,89,6.0,12.0,73,0.00,,,0.14,1.000000,,2013-01-27 07:13:00,
2013-01-26 21:21:00,76.0,67.0,-100.00,East,89,6.0,12.0,73,0.00,,,0.14,1.000000,,2013-01-27 07:21:00,
2013-01-26 21:31:00,76.0,67.0,-100.00,East,89,6.0,12.0,73,0.00,,,0.14,1.000000,,2013-01-27 07:31:00,
2013-01-26 21:52:00,75.0,66.0,-100.00,ESE,113,7.0,15.0,74,0.00,,,0.14,0.000000,,2013-01-27 07:52:00,
2013-01-26 22:01:00,75.0,66.0,-100.00,ESE,113,7.0,15.0,74,0.00,,,0.14,0.000000,,2013-01-27 08:01:00,
2013-01-26 22:11:00,75.0,66.0,-100.00,ESE,113,7.0,15.0,74,0.00,,,0.14,0.000000,,2013-01-27 08:11:00,
2013-01-26 22:21:00,75.0,66.0,-100.00,ESE,113,7.0,15.0,74,0.00,,,0.14,0.000000,,2013-01-27 08:21:00,
2013-01-26 22:31:00,75.0,66.0,-100.00,ESE,113,7.0,15.0,74,0.00,,,0.14,0.000000,,2013-01-27 08:31:00,
2013-01-26 23:02:00,76.0,67.0,-100.00,ESE,113,8.0,17.0,74,0.00,,,0.14,1.000000,,2013-01-27 09:02:00,
2013-01-26 23:11:00,76.0,67.0,-100.00,ESE,113,8.0,17.0,74,0.00,,,0.14,1.000000,,2013-01-27 09:11:00,
2013-01-26 23:21:00,76.0,67.0,-100.00,ESE,113,8.0,17.0,74,0.00,,,0.14,1.000000,,2013-01-27 09:21:00,
2013-01-26 23:31:00,76.0,67.0,-100.00,ESE,113,8.0,17.0,74,0.00,,,0.14,1.000000,,2013-01-27 09:31:00,
2013-01-26 23:52:00,74.0,66.0,-100.00,ESE,108,7.0,16.0,75,0.00,,,0.14,1.000000,,2013-01-27 09:52:00,